createdAt,value
2022-08-17T00:02:26.048Z,52.70
2022-08-17T00:04:54.165Z,53.00
2022-08-17T00:07:21.436Z,52.00
2022-08-17T00:09:48.373Z,52.08
2022-08-17T00:12:41.535Z,52.97
2022-08-17T00:15:03.845Z,52.75
2022-08-17T00:17:32.113Z,52.50
2022-08-17T00:20:00.284Z,51.95
2022-08-17T00:22:31.423Z,53.00
2022-08-17T00:25:05.358Z,52.30
2022-08-17T00:27:32.236Z,52.50
2022-08-17T00:29:59.343Z,51.55
2022-08-17T00:33:11.959Z,50.80
2022-08-17T00:35:17.729Z,50.90
2022-08-17T00:37:44.673Z,51.42
2022-08-17T00:40:14.469Z,52.60
2022-08-17T00:42:43.376Z,52.63
2022-08-17T00:45:14.573Z,54.13
2022-08-17T00:47:42.481Z,60.08
2022-08-17T00:50:12.861Z,74.03
2022-08-17T00:52:45.478Z,55.47
2022-08-17T00:55:12.822Z,56.35
2022-08-17T00:57:45.387Z,57.22
2022-08-17T01:00:16.764Z,56.67
2022-08-17T01:05:16.539Z,55.88
2022-08-17T01:07:48.081Z,55.55
2022-08-17T01:10:59.360Z,65.07
2022-08-17T01:13:05.360Z,63.50
2022-08-17T01:15:36.635Z,76.53
2022-08-17T01:18:05.444Z,54.22
2022-08-17T01:20:48.240Z,54.05
2022-08-17T01:23:20.680Z,54.85
2022-08-17T01:25:50.927Z,54.58
2022-08-17T01:28:36.476Z,55.80
2022-08-17T01:31:07.298Z,57.63
2022-08-17T01:33:34.493Z,57.28
2022-08-17T01:36:01.668Z,63.17
2022-08-17T01:38:31.912Z,61.95
2022-08-17T01:41:02.069Z,64.35
2022-08-17T01:43:33.052Z,60.47
2022-08-17T01:46:03.771Z,57.63
2022-08-17T01:48:35.060Z,56.50
2022-08-17T01:51:02.138Z,55.95
2022-08-17T01:53:34.959Z,55.92
2022-08-17T01:56:08.624Z,54.45
2022-08-17T01:58:36.898Z,55.42
2022-08-17T02:01:04.842Z,55.10
2022-08-17T02:03:32.627Z,56.08
2022-08-17T02:05:59.530Z,57.42
2022-08-17T02:08:39.576Z,57.38
2022-08-17T02:11:19.446Z,56.30
2022-08-17T02:16:22.178Z,55.08
2022-08-17T02:18:49.145Z,54.22
2022-08-17T02:21:16.062Z,54.92
2022-08-17T02:23:47.620Z,55.28
2022-08-17T02:26:23.869Z,54.38
2022-08-17T02:28:53.622Z,54.20
2022-08-17T02:31:21.368Z,55.30
2022-08-17T02:34:00.226Z,54.85
2022-08-17T02:36:31.941Z,54.78
2022-08-17T02:39:00.264Z,54.83
2022-08-17T02:41:28.611Z,54.60
2022-08-17T02:43:55.504Z,54.75
2022-08-17T02:46:22.706Z,54.50
2022-08-17T02:48:49.697Z,54.67
2022-08-17T02:51:16.597Z,55.05
2022-08-17T02:53:43.705Z,53.95
2022-08-17T02:56:10.577Z,53.13
2022-08-17T02:58:39.018Z,53.20
2022-08-17T03:01:07.463Z,53.85
2022-08-17T03:03:35.690Z,53.80
2022-08-17T03:06:02.767Z,54.00
2022-08-17T03:08:30.618Z,53.92
2022-08-17T03:10:57.631Z,54.35
2022-08-17T03:13:24.556Z,54.70
2022-08-17T03:15:52.781Z,55.13
2022-08-17T03:18:25.510Z,54.58
2022-08-17T03:20:54.109Z,54.78
2022-08-17T03:23:24.009Z,54.97
2022-08-17T03:25:53.955Z,54.40
2022-08-17T03:28:21.843Z,54.22
2022-08-17T03:30:48.954Z,53.92
2022-08-17T03:33:17.623Z,54.67
2022-08-17T03:35:45.210Z,54.30
2022-08-17T03:38:15.229Z,54.45
2022-08-17T03:40:58.454Z,55.33
2022-08-17T03:43:27.728Z,54.28
2022-08-17T03:46:34.358Z,55.38
2022-08-17T03:49:20.108Z,55.70
2022-08-17T03:52:05.332Z,55.35
2022-08-17T03:54:50.918Z,55.20
2022-08-17T03:57:19.219Z,57.00
2022-08-17T03:59:46.492Z,56.08
2022-08-17T04:02:19.051Z,56.53
2022-08-17T04:04:51.008Z,55.53
2022-08-17T04:07:19.232Z,55.70
2022-08-17T04:09:46.213Z,57.08
2022-08-17T04:12:15.336Z,55.17
2022-08-17T04:14:53.029Z,55.05
2022-08-17T04:17:24.326Z,59.75
2022-08-17T04:19:53.472Z,63.13
2022-08-17T04:22:33.408Z,57.03
2022-08-17T04:25:16.004Z,55.87
2022-08-17T04:27:42.947Z,54.88
2022-08-17T04:30:11.017Z,55.92
2022-08-17T04:33:04.768Z,55.63
2022-08-17T04:35:38.015Z,55.13
2022-08-17T04:38:05.523Z,55.70
2022-08-17T04:40:51.226Z,56.20
2022-08-17T04:43:20.377Z,55.72
2022-08-17T04:45:55.373Z,55.22
2022-08-17T04:48:36.651Z,56.28
2022-08-17T04:51:09.788Z,55.30
2022-08-17T04:53:38.154Z,56.83
2022-08-17T04:56:05.608Z,55.08
2022-08-17T04:58:32.546Z,56.60
2022-08-17T05:00:59.907Z,58.22
2022-08-17T05:03:26.898Z,59.28
2022-08-17T05:05:53.863Z,60.45
2022-08-17T05:08:22.251Z,59.75
2022-08-17T05:10:50.378Z,56.42
2022-08-17T05:13:19.669Z,57.75
2022-08-17T05:15:48.141Z,56.58
2022-08-17T05:18:16.684Z,57.47
2022-08-17T05:20:44.343Z,57.20
2022-08-17T05:23:13.844Z,57.45
2022-08-17T05:25:47.722Z,58.20
2022-08-17T05:28:15.914Z,56.95
2022-08-17T05:30:44.213Z,58.03
2022-08-17T05:33:13.642Z,57.67
2022-08-17T05:35:46.970Z,55.38
2022-08-17T05:38:14.424Z,54.17
2022-08-17T05:40:43.236Z,54.78
2022-08-17T05:43:12.869Z,53.72
2022-08-17T05:45:55.755Z,54.58
2022-08-17T05:48:35.437Z,54.70
2022-08-17T05:51:23.937Z,54.10
2022-08-17T05:54:02.071Z,54.30
2022-08-17T05:56:42.742Z,53.97
2022-08-17T05:59:17.241Z,53.53
2022-08-17T06:01:52.672Z,54.47
2022-08-17T06:04:35.582Z,54.40
2022-08-17T06:07:17.384Z,54.28
2022-08-17T06:09:50.616Z,54.72
2022-08-17T06:12:34.023Z,55.03
2022-08-17T06:15:15.176Z,55.38
2022-08-17T06:17:43.346Z,54.85
2022-08-17T06:20:13.231Z,54.63
2022-08-17T06:22:44.660Z,54.58
2022-08-17T06:27:47.429Z,53.85
2022-08-17T06:30:24.744Z,54.35
2022-08-17T06:32:53.442Z,54.63
2022-08-17T06:35:32.082Z,53.90
2022-08-17T06:38:07.792Z,54.55
2022-08-17T06:41:05.492Z,54.67
2022-08-17T06:43:50.846Z,54.70
2022-08-17T06:46:23.517Z,55.13
2022-08-17T06:49:09.652Z,53.53
2022-08-17T06:51:40.439Z,54.65
2022-08-17T06:54:11.508Z,54.95
2022-08-17T06:56:52.952Z,54.47
2022-08-17T06:59:26.260Z,55.78
2022-08-17T07:02:05.616Z,56.20
2022-08-17T07:04:34.571Z,56.13
2022-08-17T07:07:27.699Z,56.22
2022-08-17T07:09:59.009Z,56.10
2022-08-17T07:15:05.480Z,56.63
2022-08-17T07:17:48.107Z,56.58
2022-08-17T07:20:20.573Z,55.83
2022-08-17T07:23:00.030Z,54.45
2022-08-17T07:25:30.715Z,54.88
2022-08-17T07:28:00.330Z,54.90
2022-08-17T07:30:30.690Z,54.83
2022-08-17T07:33:13.440Z,55.70
2022-08-17T07:35:43.917Z,55.42
2022-08-17T07:38:25.310Z,56.92
2022-08-17T07:41:02.821Z,59.25
2022-08-17T07:43:31.921Z,59.95
2022-08-17T07:46:37.975Z,61.40
2022-08-17T07:49:34.989Z,57.97
2022-08-17T07:52:24.146Z,55.80
2022-08-17T07:54:52.676Z,54.50
2022-08-17T07:57:35.312Z,53.80
2022-08-17T08:00:19.443Z,53.17
2022-08-17T08:05:52.101Z,53.20
2022-08-17T08:08:25.654Z,53.35
2022-08-17T08:11:00.745Z,53.50
2022-08-17T08:13:30.220Z,53.90
2022-08-17T08:16:15.165Z,54.70
2022-08-17T08:18:54.369Z,54.78
2022-08-17T08:21:31.875Z,54.38
2022-08-17T08:24:10.052Z,55.80
2022-08-17T08:26:44.442Z,55.95
2022-08-17T08:29:28.268Z,55.88
2022-08-17T08:32:03.476Z,54.60
2022-08-17T08:35:01.270Z,55.10
2022-08-17T08:37:44.828Z,55.10
2022-08-17T08:40:31.811Z,54.47
2022-08-17T08:43:08.828Z,54.58
2022-08-17T08:45:45.165Z,54.92
2022-08-17T08:48:56.280Z,54.67
2022-08-17T08:51:21.264Z,55.67
2022-08-17T08:53:58.702Z,55.92
2022-08-17T08:56:34.325Z,56.70
2022-08-17T08:59:10.419Z,56.88
2022-08-17T09:01:53.219Z,58.38
2022-08-17T09:05:02.703Z,57.67
2022-08-17T09:07:34.802Z,59.03
2022-08-17T09:10:09.484Z,57.45
2022-08-17T09:12:47.603Z,58.90
2022-08-17T09:15:19.159Z,59.17
2022-08-17T09:18:08.630Z,59.40
2022-08-17T09:20:50.071Z,57.47
2022-08-17T09:23:32.535Z,57.03
2022-08-17T09:26:03.971Z,56.80
2022-08-17T09:28:35.195Z,56.65
2022-08-17T09:31:08.056Z,56.60
2022-08-17T09:33:39.946Z,57.03
2022-08-17T09:36:14.402Z,56.80
2022-08-17T09:38:52.936Z,56.40
2022-08-17T09:41:25.147Z,58.65
2022-08-17T09:43:58.697Z,57.13
2022-08-17T09:46:30.691Z,57.38
2022-08-17T09:49:03.486Z,59.00
2022-08-17T09:51:35.607Z,59.30
2022-08-17T09:54:21.390Z,58.70
2022-08-17T09:57:28.119Z,57.65
2022-08-17T10:00:16.698Z,57.83
2022-08-17T10:03:11.784Z,57.03
2022-08-17T10:05:47.870Z,58.40
2022-08-17T10:08:24.116Z,58.22
2022-08-17T10:11:05.809Z,59.63
2022-08-17T10:13:41.732Z,60.42
2022-08-17T10:16:28.961Z,59.53
2022-08-17T10:19:10.493Z,59.78
2022-08-17T10:22:00.918Z,58.40
2022-08-17T10:27:43.955Z,58.63
2022-08-17T10:30:16.779Z,57.85
2022-08-17T10:32:50.215Z,58.17
2022-08-17T10:35:29.218Z,58.40
2022-08-17T10:38:21.641Z,58.40
2022-08-17T10:40:57.420Z,59.03
2022-08-17T10:43:36.842Z,58.38
2022-08-17T10:46:31.388Z,58.15
2022-08-17T10:49:24.119Z,57.22
2022-08-17T10:51:54.363Z,58.33
2022-08-17T10:54:40.675Z,57.30
2022-08-17T10:57:40.021Z,58.17
2022-08-17T11:00:58.761Z,57.28
2022-08-17T11:03:26.679Z,58.70
2022-08-17T11:06:04.354Z,57.22
2022-08-17T11:08:57.882Z,57.83
2022-08-17T11:11:59.521Z,57.50
2022-08-17T11:14:48.020Z,58.10
2022-08-17T11:17:30.126Z,56.80
2022-08-17T11:20:49.212Z,57.33
2022-08-17T11:23:32.579Z,56.78
2022-08-17T11:26:08.421Z,57.47
2022-08-17T11:28:48.858Z,57.17
2022-08-17T11:31:38.952Z,56.83
2022-08-17T11:34:14.608Z,56.15
2022-08-17T11:37:38.573Z,55.67
2022-08-17T11:40:38.950Z,55.45
2022-08-17T11:43:29.254Z,55.50
2022-08-17T11:46:17.014Z,55.20
2022-08-17T11:49:14.451Z,55.65
2022-08-17T11:52:12.517Z,54.28
2022-08-17T11:54:45.080Z,53.72
2022-08-17T11:57:54.544Z,53.70
2022-08-17T12:00:54.772Z,52.78
2022-08-17T12:03:26.622Z,53.60
2022-08-17T12:06:04.040Z,53.15
2022-08-17T12:08:43.480Z,53.60
2022-08-17T12:11:16.423Z,53.25
2022-08-17T12:14:05.016Z,53.22
2022-08-17T12:16:32.923Z,53.28
2022-08-17T12:19:02.768Z,53.53
2022-08-17T12:21:53.804Z,52.90
2022-08-17T12:24:33.203Z,53.20
2022-08-17T12:27:04.435Z,53.40
2022-08-17T12:29:35.986Z,53.85
2022-08-17T12:32:07.160Z,52.92
2022-08-17T12:34:38.784Z,53.30
2022-08-17T12:37:12.814Z,53.67
2022-08-17T12:39:51.337Z,53.22
2022-08-17T12:42:23.814Z,53.08
2022-08-17T12:44:50.949Z,53.92
2022-08-17T12:47:22.832Z,53.35
2022-08-17T12:49:52.248Z,53.08
2022-08-17T12:52:26.707Z,53.22
2022-08-17T12:54:59.596Z,52.83
2022-08-17T12:57:29.285Z,53.35
2022-08-17T13:02:31.707Z,52.80
2022-08-17T13:05:00.900Z,52.92
2022-08-17T13:07:30.567Z,52.85
2022-08-17T13:09:59.054Z,52.97
2022-08-17T13:12:31.066Z,53.63
2022-08-17T13:14:58.445Z,53.38
2022-08-17T13:17:31.142Z,53.10
2022-08-17T13:19:58.814Z,53.17
2022-08-17T13:22:29.458Z,53.33
2022-08-17T13:25:00.886Z,52.55
2022-08-17T13:27:29.207Z,52.47
2022-08-17T13:29:59.610Z,52.40
2022-08-17T13:32:40.010Z,52.90
2022-08-17T13:35:34.501Z,52.83
2022-08-17T13:38:09.601Z,52.40
2022-08-17T13:40:42.353Z,52.60
2022-08-17T13:43:10.614Z,52.60
2022-08-17T13:45:50.333Z,52.40
2022-08-17T13:48:24.897Z,52.60
2022-08-17T13:51:07.243Z,52.30
2022-08-17T13:53:52.289Z,52.53
2022-08-17T13:56:33.210Z,52.33
2022-08-17T13:59:08.053Z,52.40
2022-08-17T14:01:37.718Z,52.35
2022-08-17T14:04:07.758Z,52.40
2022-08-17T14:06:51.403Z,52.80
2022-08-17T14:09:24.091Z,52.38
2022-08-17T14:11:53.973Z,52.17
2022-08-17T14:14:23.210Z,51.92
2022-08-17T14:16:50.782Z,52.03
2022-08-17T14:19:18.501Z,52.55
2022-08-17T14:21:46.685Z,52.35
2022-08-17T14:24:21.914Z,52.17
2022-08-17T14:26:49.015Z,52.00
2022-08-17T14:29:17.234Z,52.65
2022-08-17T14:31:48.510Z,51.97
2022-08-17T14:34:21.465Z,52.45
2022-08-17T14:36:48.871Z,52.10
2022-08-17T14:39:16.581Z,52.10
2022-08-17T14:41:43.637Z,52.22
2022-08-17T14:44:12.577Z,52.28
2022-08-17T14:46:43.008Z,51.90
2022-08-17T14:49:11.176Z,51.78
2022-08-17T14:51:44.110Z,52.63
2022-08-17T14:54:32.903Z,52.17
2022-08-17T14:57:23.322Z,51.92
2022-08-17T14:59:47.377Z,52.35
2022-08-17T15:02:19.056Z,51.90
2022-08-17T15:04:47.708Z,52.38
2022-08-17T15:07:14.753Z,52.42
2022-08-17T15:09:41.829Z,52.00
2022-08-17T15:12:09.069Z,52.45
2022-08-17T15:14:36.289Z,52.53
2022-08-17T15:17:03.748Z,52.50
2022-08-17T15:19:32.060Z,51.92
2022-08-17T15:21:59.088Z,52.28
2022-08-17T15:24:26.028Z,52.88
2022-08-17T15:26:52.898Z,52.53
2022-08-17T15:29:19.836Z,52.63
2022-08-17T15:31:46.688Z,52.70
2022-08-17T15:34:14.359Z,52.13
2022-08-17T15:36:49.209Z,51.85
2022-08-17T15:39:19.494Z,52.40
2022-08-17T15:41:47.369Z,52.38
2022-08-17T15:44:32.445Z,52.20
2022-08-17T15:47:01.849Z,52.22
2022-08-17T15:49:28.720Z,52.15
2022-08-17T15:51:56.975Z,51.70
2022-08-17T15:54:24.295Z,52.03
2022-08-17T15:56:51.181Z,52.45
2022-08-17T15:59:18.384Z,52.30
2022-08-17T16:03:14.735Z,51.97
2022-08-17T16:04:32.552Z,52.60
2022-08-17T16:07:01.093Z,52.55
2022-08-17T16:09:28.175Z,51.78
2022-08-17T16:11:56.136Z,52.30
2022-08-17T16:14:24.274Z,52.25
2022-08-17T16:16:52.747Z,51.60
2022-08-17T16:19:19.700Z,52.25
2022-08-17T16:21:46.762Z,51.75
2022-08-17T16:24:15.265Z,52.22
2022-08-17T16:26:42.745Z,52.15
2022-08-17T16:29:09.888Z,52.22
2022-08-17T16:31:37.775Z,51.67
2022-08-17T16:34:16.752Z,51.97
2022-08-17T16:36:55.795Z,51.53
2022-08-17T16:39:26.306Z,52.33
2022-08-17T16:41:53.261Z,52.03
2022-08-17T16:44:21.664Z,52.08
2022-08-17T16:46:50.177Z,52.08
2022-08-17T16:49:31.909Z,51.75
2022-08-17T16:52:04.650Z,51.75
2022-08-17T16:54:33.507Z,51.85
2022-08-17T16:57:00.420Z,52.38
2022-08-17T16:59:30.138Z,52.22
2022-08-17T17:02:04.781Z,52.05
2022-08-17T17:04:35.097Z,52.25
2022-08-17T17:07:08.721Z,52.35
2022-08-17T17:09:40.438Z,52.17
2022-08-17T17:12:18.989Z,52.38
2022-08-17T17:15:02.259Z,51.83
2022-08-17T17:17:32.766Z,51.33
2022-08-17T17:20:09.861Z,51.80
2022-08-17T17:22:44.288Z,51.90
2022-08-17T17:25:19.448Z,52.03
2022-08-17T17:27:59.948Z,51.97
2022-08-17T17:30:33.145Z,52.03
2022-08-17T17:33:04.891Z,51.35
2022-08-17T17:35:34.846Z,51.85
2022-08-17T17:38:06.401Z,51.75
2022-08-17T17:40:41.863Z,52.13
2022-08-17T17:43:37.049Z,55.33
2022-08-17T17:46:28.305Z,52.33
2022-08-17T17:48:50.858Z,51.83
2022-08-17T17:52:06.441Z,51.80
2022-08-17T17:54:25.931Z,52.05
2022-08-17T17:57:03.625Z,51.67
2022-08-17T17:59:44.298Z,51.72
2022-08-17T18:02:45.600Z,51.28
2022-08-17T18:05:39.407Z,51.58
2022-08-17T18:08:16.760Z,51.50
2022-08-17T18:10:50.614Z,51.97
2022-08-17T18:13:32.737Z,50.83
2022-08-17T18:16:01.084Z,51.38
2022-08-17T18:18:39.938Z,51.15
2022-08-17T18:21:16.440Z,50.75
2022-08-17T18:23:48.043Z,51.13
2022-08-17T18:26:36.595Z,51.13
2022-08-17T18:29:15.535Z,50.83
2022-08-17T18:31:42.483Z,51.17
2022-08-17T18:34:43.688Z,51.47
2022-08-17T18:37:10.253Z,51.40
2022-08-17T18:39:38.434Z,51.28
2022-08-17T18:42:24.303Z,50.90
2022-08-17T18:44:55.363Z,51.20
2022-08-17T18:47:25.534Z,51.22
2022-08-17T18:49:57.726Z,51.53
2022-08-17T18:52:29.442Z,51.05
2022-08-17T18:55:08.994Z,50.83
2022-08-17T18:57:38.638Z,51.05
2022-08-17T19:00:15.062Z,50.85
2022-08-17T19:02:54.824Z,50.78
2022-08-17T19:05:35.330Z,50.38
2022-08-17T19:08:19.961Z,50.50
2022-08-17T19:10:50.134Z,50.53
2022-08-17T19:13:23.823Z,50.53
2022-08-17T19:16:14.586Z,50.58
2022-08-17T19:21:16.553Z,51.00
2022-08-17T19:23:53.363Z,50.97
2022-08-17T19:26:54.075Z,50.33
2022-08-17T19:29:16.581Z,50.85
2022-08-17T19:31:48.376Z,51.40
2022-08-17T19:34:17.120Z,50.55
2022-08-17T19:37:07.553Z,50.95
2022-08-17T19:39:43.376Z,50.72
2022-08-17T19:42:16.603Z,50.75
2022-08-17T19:44:54.756Z,50.47
2022-08-17T19:47:53.750Z,50.53
2022-08-17T19:50:27.999Z,50.28
2022-08-17T19:53:01.991Z,50.55
2022-08-17T19:55:43.623Z,50.85
2022-08-17T19:58:26.833Z,50.88
2022-08-17T20:00:54.816Z,50.70
2022-08-17T20:03:27.320Z,50.38
2022-08-17T20:06:14.265Z,50.67
2022-08-17T20:08:53.798Z,50.67
2022-08-17T20:11:27.305Z,51.00
2022-08-17T20:14:00.661Z,50.55
2022-08-17T20:16:27.833Z,50.30
2022-08-17T20:19:00.816Z,50.40
2022-08-17T20:21:34.520Z,50.10
2022-08-17T20:24:13.987Z,50.10
2022-08-17T20:26:57.207Z,50.42
2022-08-17T20:29:39.824Z,51.40
2022-08-17T20:32:25.246Z,50.40
2022-08-17T20:35:07.738Z,50.33
2022-08-17T20:37:36.200Z,50.22
2022-08-17T20:40:35.196Z,50.17
2022-08-17T20:43:44.433Z,50.40
2022-08-17T20:46:26.791Z,50.08
2022-08-17T20:48:58.560Z,50.53
2022-08-17T20:51:31.503Z,50.63
2022-08-17T20:54:07.195Z,50.22
2022-08-17T20:56:49.625Z,50.35
2022-08-17T20:59:52.695Z,50.05
2022-08-17T21:02:22.418Z,50.22
2022-08-17T21:05:07.975Z,50.38
2022-08-17T21:07:55.911Z,50.85
2022-08-17T21:10:36.406Z,49.83
2022-08-17T21:13:42.244Z,50.53
2022-08-17T21:16:27.931Z,50.33
2022-08-17T21:19:03.975Z,49.70
2022-08-17T21:21:41.170Z,49.90
2022-08-17T21:24:27.044Z,50.17
2022-08-17T21:27:02.181Z,50.42
2022-08-17T21:29:33.940Z,50.17
2022-08-17T21:32:18.591Z,49.88
2022-08-17T21:35:28.742Z,50.05
2022-08-17T21:38:05.215Z,50.78
2022-08-17T21:40:34.208Z,50.17
2022-08-17T21:43:08.333Z,50.03
2022-08-17T21:45:40.356Z,49.80
2022-08-17T21:48:12.696Z,49.47
2022-08-17T21:50:41.754Z,50.33
2022-08-17T21:53:13.120Z,50.40
2022-08-17T21:55:41.666Z,50.53
2022-08-17T21:58:30.466Z,49.83
2022-08-17T22:01:22.559Z,49.90
2022-08-17T22:04:00.705Z,49.97
2022-08-17T22:06:34.191Z,49.25
2022-08-17T22:09:12.685Z,49.25
2022-08-17T22:12:07.752Z,49.45
2022-08-17T22:14:52.667Z,49.50
2022-08-17T22:17:24.271Z,49.45
2022-08-17T22:19:53.653Z,49.87
2022-08-17T22:22:33.592Z,49.05
2022-08-17T22:25:02.978Z,49.20
2022-08-17T22:27:54.518Z,49.13
2022-08-17T22:30:35.188Z,49.55
2022-08-17T22:33:31.480Z,49.45
2022-08-17T22:36:10.735Z,48.92
2022-08-17T22:38:39.170Z,49.30
2022-08-17T22:41:32.098Z,48.95
2022-08-17T22:46:29.538Z,48.53
2022-08-17T22:48:59.671Z,49.30
2022-08-17T22:51:29.558Z,49.40
2022-08-17T22:54:18.207Z,48.72
2022-08-17T22:57:13.775Z,49.08
2022-08-17T22:59:47.719Z,49.17
2022-08-17T23:02:24.550Z,49.60
2022-08-17T23:04:57.454Z,49.35
2022-08-17T23:07:24.585Z,49.35
2022-08-17T23:09:52.941Z,49.42
2022-08-17T23:12:26.440Z,49.55
2022-08-17T23:14:59.464Z,49.55
2022-08-17T23:17:27.849Z,49.85
2022-08-17T23:19:57.118Z,49.38
2022-08-17T23:22:25.042Z,49.35
2022-08-17T23:24:52.092Z,49.30
2022-08-17T23:27:20.484Z,49.55
2022-08-17T23:29:48.713Z,49.88
2022-08-17T23:32:18.331Z,49.67
2022-08-17T23:34:47.051Z,49.05
2022-08-17T23:37:16.876Z,49.30
2022-08-17T23:39:45.182Z,49.08
2022-08-17T23:42:15.218Z,49.92
2022-08-17T23:44:43.731Z,49.55
2022-08-17T23:47:11.412Z,49.03
2022-08-17T23:49:39.245Z,49.25
2022-08-17T23:52:10.014Z,49.42
2022-08-17T23:54:43.693Z,49.35
2022-08-17T23:57:12.223Z,49.42
2022-08-17T23:59:40.089Z,49.78
